createdAt,value
2019-03-03T00:00:52.779Z,10.00
2019-03-03T00:03:41.025Z,10.17
2019-03-03T00:06:29.035Z,9.93
2019-03-03T00:12:11.583Z,8.67
2019-03-03T00:14:59.868Z,8.10
2019-03-03T00:17:48.215Z,7.57
2019-03-03T00:20:36.226Z,8.23
2019-03-03T00:23:24.933Z,7.77
2019-03-03T00:26:13.299Z,7.00
2019-03-03T00:29:01.602Z,6.43
2019-03-03T00:31:49.602Z,6.60
2019-03-03T00:34:30.439Z,6.20
2019-03-03T00:37:33.411Z,7.80
2019-03-03T00:40:28.410Z,7.23
2019-03-03T00:43:16.638Z,7.87
2019-03-03T00:46:11.356Z,7.73
2019-03-03T00:49:11.155Z,6.53
2019-03-03T00:52:10.987Z,7.00
2019-03-03T00:55:11.179Z,6.90
2019-03-03T00:58:14.549Z,6.73
2019-03-03T01:01:13.930Z,5.77
2019-03-03T01:04:06.352Z,6.37
2019-03-03T01:07:05.836Z,6.50
2019-03-03T01:09:51.253Z,5.97
2019-03-03T01:12:48.098Z,6.13
2019-03-03T01:15:35.174Z,5.30
2019-03-03T01:18:28.766Z,4.90
2019-03-03T01:21:35.858Z,5.00
2019-03-03T01:24:42.936Z,5.90
2019-03-03T01:27:30.936Z,4.63
2019-03-03T01:30:19.271Z,4.97
2019-03-03T01:33:07.819Z,5.77
2019-03-03T01:35:48.854Z,5.60
2019-03-03T01:38:29.903Z,6.10
2019-03-03T01:41:10.817Z,5.20
2019-03-03T01:43:51.438Z,6.30
2019-03-03T01:46:32.442Z,5.63
2019-03-03T01:49:12.959Z,6.43
2019-03-03T01:51:53.963Z,6.50
2019-03-03T01:54:35.103Z,4.80
2019-03-03T01:57:16.009Z,5.50
2019-03-03T01:59:56.386Z,6.60
2019-03-03T02:02:37.136Z,6.20
2019-03-03T02:05:18.022Z,6.23
2019-03-03T02:07:58.707Z,6.17
2019-03-03T02:10:39.286Z,6.87
2019-03-03T02:13:19.957Z,7.43
2019-03-03T02:16:00.363Z,7.40
2019-03-03T02:18:41.072Z,7.27
2019-03-03T02:21:22.108Z,8.10
2019-03-03T02:24:02.816Z,7.80
2019-03-03T02:26:43.428Z,8.70
2019-03-03T02:29:24.233Z,8.57
2019-03-03T02:32:06.403Z,9.30
2019-03-03T02:34:47.354Z,9.47
2019-03-03T02:37:27.825Z,9.37
2019-03-03T02:40:08.770Z,8.90
2019-03-03T02:42:49.363Z,9.53
2019-03-03T02:45:29.918Z,8.80
2019-03-03T02:48:10.773Z,9.03
2019-03-03T02:50:51.526Z,8.33
2019-03-03T02:53:32.069Z,9.20
2019-03-03T02:56:12.778Z,9.47
2019-03-03T02:58:53.335Z,9.43
2019-03-03T03:01:40.120Z,9.47
2019-03-03T03:04:20.467Z,9.03
2019-03-03T03:07:20.425Z,9.40
2019-03-03T03:10:08.277Z,9.20
2019-03-03T03:12:47.761Z,8.90
2019-03-03T03:15:54.841Z,8.33
2019-03-03T03:18:51.085Z,7.67
2019-03-03T03:21:58.164Z,8.80
2019-03-03T03:25:05.267Z,7.35
2019-03-03T03:28:12.386Z,6.80
2019-03-03T03:31:18.215Z,7.63
2019-03-03T03:34:05.494Z,7.90
2019-03-03T03:37:05.377Z,6.33
2019-03-03T03:39:59.837Z,5.80
2019-03-03T03:42:48.375Z,6.37
2019-03-03T03:45:48.641Z,7.53
2019-03-03T03:48:38.937Z,5.83
2019-03-03T03:51:26.885Z,6.07
2019-03-03T03:54:27.009Z,6.03
2019-03-03T03:57:19.702Z,6.33
2019-03-03T04:00:25.185Z,4.90
2019-03-03T04:03:13.114Z,4.87
2019-03-03T04:06:03.803Z,5.27
2019-03-03T04:08:53.090Z,4.70
2019-03-03T04:11:42.141Z,5.83
2019-03-03T04:14:45.448Z,5.20
2019-03-03T04:17:45.077Z,4.73
2019-03-03T04:20:44.559Z,5.30
2019-03-03T04:23:44.107Z,5.80
2019-03-03T04:26:37.228Z,4.60
2019-03-03T04:29:43.153Z,4.87
2019-03-03T04:32:43.501Z,5.27
2019-03-03T04:35:43.136Z,4.97
2019-03-03T04:38:31.037Z,4.90
2019-03-03T04:41:34.144Z,4.87
2019-03-03T04:44:33.678Z,5.77
2019-03-03T04:47:33.134Z,6.03
2019-03-03T04:50:19.369Z,5.57
2019-03-03T04:53:13.253Z,4.67
2019-03-03T04:56:13.266Z,4.60
2019-03-03T04:59:10.040Z,4.70
2019-03-03T05:02:00.316Z,4.70
2019-03-03T05:04:55.494Z,4.40
2019-03-03T05:07:47.153Z,4.30
2019-03-03T05:10:49.696Z,4.60
2019-03-03T05:13:49.414Z,4.33
2019-03-03T05:16:49.160Z,4.63
2019-03-03T05:19:34.070Z,3.73
2019-03-03T05:22:14.837Z,4.93
2019-03-03T05:24:55.315Z,4.33
2019-03-03T05:27:36.188Z,4.70
2019-03-03T05:30:17.561Z,5.43
2019-03-03T05:32:58.011Z,4.90
2019-03-03T05:35:38.917Z,4.83
2019-03-03T05:38:19.700Z,4.20
2019-03-03T05:41:00.411Z,4.53
2019-03-03T05:43:41.016Z,5.00
2019-03-03T05:46:21.792Z,4.83
2019-03-03T05:49:02.599Z,4.60
2019-03-03T05:51:43.529Z,4.03
2019-03-03T05:54:24.315Z,5.03
2019-03-03T05:57:05.419Z,5.40
2019-03-03T05:59:46.616Z,4.63
2019-03-03T06:02:27.363Z,4.90
2019-03-03T06:05:07.959Z,5.30
2019-03-03T06:07:48.656Z,5.10
2019-03-03T06:10:29.432Z,4.97
2019-03-03T06:13:09.888Z,6.07
2019-03-03T06:15:50.458Z,5.70
2019-03-03T06:18:31.274Z,5.07
2019-03-03T06:21:11.824Z,5.00
2019-03-03T06:23:52.469Z,6.00
2019-03-03T06:26:33.508Z,5.43
2019-03-03T06:29:13.832Z,5.60
2019-03-03T06:31:54.637Z,5.40
2019-03-03T06:34:35.364Z,5.70
2019-03-03T06:37:16.212Z,5.20
2019-03-03T06:39:45.002Z,5.00
2019-03-03T06:42:13.861Z,4.20
2019-03-03T06:45:01.868Z,4.70
2019-03-03T06:47:49.977Z,5.27
2019-03-03T06:50:37.990Z,5.60
2019-03-03T06:53:26.018Z,5.77
2019-03-03T06:56:14.040Z,5.73
2019-03-03T06:59:02.043Z,5.63
2019-03-03T07:01:50.147Z,5.03
2019-03-03T07:04:38.356Z,5.27
2019-03-03T07:07:26.372Z,4.70
2019-03-03T07:10:14.403Z,4.93
2019-03-03T07:13:02.412Z,4.57
2019-03-03T07:15:50.499Z,5.00
2019-03-03T07:18:38.519Z,4.70
2019-03-03T07:21:26.524Z,5.77
2019-03-03T07:24:14.552Z,5.70
2019-03-03T07:27:02.570Z,4.97
2019-03-03T07:29:50.604Z,5.60
2019-03-03T07:35:36.374Z,4.43
2019-03-03T07:38:15.533Z,4.67
2019-03-03T07:41:03.552Z,5.00
2019-03-03T07:43:51.562Z,5.00
2019-03-03T07:46:39.575Z,4.77
2019-03-03T07:49:27.594Z,4.70
2019-03-03T07:52:15.612Z,4.20
2019-03-03T07:55:03.685Z,5.17
2019-03-03T07:57:51.997Z,4.57
2019-03-03T08:00:40.004Z,5.80
2019-03-03T08:03:28.028Z,5.53
2019-03-03T08:06:16.025Z,4.63
2019-03-03T08:12:19.851Z,5.33
2019-03-03T08:15:08.212Z,4.87
2019-03-03T08:17:56.221Z,4.50
2019-03-03T08:20:44.212Z,4.80
2019-03-03T08:23:32.524Z,4.87
2019-03-03T08:26:20.542Z,5.07
2019-03-03T08:29:29.949Z,4.70
2019-03-03T08:32:18.122Z,5.17
2019-03-03T08:34:58.639Z,5.53
2019-03-03T08:37:39.381Z,5.50
2019-03-03T08:40:20.273Z,5.20
2019-03-03T08:46:13.895Z,6.10
2019-03-03T08:49:14.491Z,5.80
2019-03-03T08:52:14.560Z,5.93
2019-03-03T08:55:04.191Z,5.63
2019-03-03T08:58:04.442Z,6.23
2019-03-03T09:00:49.156Z,5.17
2019-03-03T09:03:57.635Z,5.93
2019-03-03T09:06:57.791Z,5.10
2019-03-03T09:10:04.008Z,4.90
2019-03-03T09:13:04.297Z,4.87
2019-03-03T09:16:06.812Z,4.67
2019-03-03T09:18:54.305Z,4.53
2019-03-03T09:21:53.943Z,5.27
2019-03-03T09:24:50.599Z,4.77
2019-03-03T09:27:38.557Z,4.07
2019-03-03T09:30:38.329Z,5.40
2019-03-03T09:33:39.427Z,5.40
2019-03-03T09:36:33.063Z,3.87
2019-03-03T09:39:33.254Z,3.93
2019-03-03T09:42:32.791Z,4.30
2019-03-03T09:45:32.299Z,5.60
2019-03-03T09:48:34.576Z,6.30
2019-03-03T09:51:37.231Z,4.23
2019-03-03T09:54:43.598Z,5.30
2019-03-03T09:57:43.667Z,3.70
2019-03-03T10:00:43.866Z,4.17
2019-03-03T10:03:43.849Z,4.40
2019-03-03T10:09:50.748Z,4.50
2019-03-03T10:12:37.998Z,4.23
2019-03-03T10:15:37.764Z,3.80
2019-03-03T10:18:44.331Z,4.07
2019-03-03T10:21:44.479Z,3.93
2019-03-03T10:24:44.720Z,4.20
2019-03-03T10:27:44.870Z,4.50
2019-03-03T10:30:44.604Z,4.40
2019-03-03T10:33:44.412Z,4.30
2019-03-03T10:39:30.127Z,3.87
2019-03-03T10:42:17.293Z,3.40
2019-03-03T10:45:17.751Z,4.97
2019-03-03T10:48:15.072Z,4.37
2019-03-03T10:51:18.396Z,3.30
2019-03-03T10:54:17.865Z,3.03
2019-03-03T10:57:17.425Z,3.33
2019-03-03T11:00:16.852Z,3.70
2019-03-03T11:03:17.253Z,3.70
2019-03-03T11:06:16.885Z,3.30
2019-03-03T11:09:06.002Z,3.47
2019-03-03T11:12:05.788Z,3.07
2019-03-03T11:15:06.093Z,2.83
2019-03-03T11:18:23.384Z,2.63
2019-03-03T11:21:13.160Z,2.43
2019-03-03T11:24:00.680Z,2.87
2019-03-03T11:27:04.007Z,2.90
2019-03-03T11:33:18.753Z,3.40
2019-03-03T11:36:12.021Z,3.50
2019-03-03T11:39:00.279Z,3.87
2019-03-03T11:41:52.314Z,4.27
2019-03-03T11:44:52.402Z,2.83
2019-03-03T11:47:42.752Z,3.87
2019-03-03T11:50:42.466Z,3.73
2019-03-03T11:53:45.753Z,3.30
2019-03-03T11:56:34.800Z,3.27
2019-03-03T11:59:22.833Z,3.30
2019-03-03T12:02:19.133Z,3.13
2019-03-03T12:05:17.348Z,3.20
2019-03-03T12:08:24.561Z,2.90
2019-03-03T12:11:31.664Z,3.57
2019-03-03T12:14:39.204Z,3.00
2019-03-03T12:17:46.368Z,3.10
2019-03-03T12:20:53.529Z,3.40
2019-03-03T12:24:00.687Z,3.17
2019-03-03T12:26:55.025Z,3.67
2019-03-03T12:30:02.195Z,3.27
2019-03-03T12:33:09.313Z,3.77
2019-03-03T12:36:15.208Z,3.70
2019-03-03T12:39:15.393Z,3.60
2019-03-03T12:42:14.901Z,2.93
2019-03-03T12:45:03.541Z,3.00
2019-03-03T12:48:03.064Z,3.33
2019-03-03T12:51:02.713Z,3.00
2019-03-03T12:54:06.088Z,4.30
2019-03-03T12:57:05.590Z,3.00
2019-03-03T13:00:11.802Z,2.80
2019-03-03T13:03:14.113Z,3.50
2019-03-03T13:09:23.242Z,3.57
2019-03-03T13:12:23.004Z,2.60
2019-03-03T13:15:28.910Z,2.77
2019-03-03T13:18:29.019Z,2.33
2019-03-03T13:24:41.412Z,2.53
2019-03-03T13:27:32.213Z,2.50
2019-03-03T13:30:31.717Z,2.47
2019-03-03T13:33:32.125Z,2.03
2019-03-03T13:39:39.489Z,2.20
2019-03-03T13:42:32.434Z,2.30
2019-03-03T13:45:13.858Z,2.37
2019-03-03T13:47:54.924Z,2.40
2019-03-03T13:50:35.943Z,2.03
2019-03-03T13:53:16.363Z,2.50
2019-03-03T13:55:57.122Z,2.53
2019-03-03T13:58:38.313Z,2.50
2019-03-03T14:01:19.932Z,2.70
2019-03-03T14:04:01.043Z,2.40
2019-03-03T14:06:41.809Z,2.33
2019-03-03T14:09:22.489Z,2.20
2019-03-03T14:12:02.906Z,2.93
2019-03-03T14:14:44.141Z,2.50
2019-03-03T14:17:24.750Z,2.07
2019-03-03T14:20:06.223Z,1.80
2019-03-03T14:22:46.680Z,1.70
2019-03-03T14:25:27.857Z,2.20
2019-03-03T14:28:08.656Z,2.30
2019-03-03T14:30:49.550Z,2.67
2019-03-03T14:33:30.475Z,2.87
2019-03-03T14:36:10.889Z,2.00
2019-03-03T14:38:51.616Z,2.27
2019-03-03T14:41:32.038Z,2.20
2019-03-03T14:44:12.741Z,1.70
2019-03-03T14:46:53.335Z,2.40
2019-03-03T14:49:34.006Z,2.10
2019-03-03T14:52:14.673Z,1.70
2019-03-03T14:54:55.387Z,2.10
2019-03-03T14:57:36.077Z,2.50
2019-03-03T15:00:16.760Z,2.27
2019-03-03T15:02:57.295Z,1.80
2019-03-03T15:05:37.917Z,2.23
2019-03-03T15:08:18.796Z,2.40
2019-03-03T15:10:59.215Z,2.50
2019-03-03T15:13:39.953Z,2.30
2019-03-03T15:18:59.769Z,2.20
2019-03-03T15:21:40.874Z,2.53
2019-03-03T15:24:21.761Z,2.00
2019-03-03T15:27:02.397Z,2.57
2019-03-03T15:29:42.806Z,2.40
2019-03-03T15:32:23.620Z,2.20
2019-03-03T15:35:04.313Z,2.17
2019-03-03T15:37:45.428Z,2.03
2019-03-03T15:40:26.921Z,2.30
2019-03-03T15:43:08.441Z,2.77
2019-03-03T15:45:49.095Z,2.30
2019-03-03T15:48:29.535Z,2.33
2019-03-03T15:51:10.425Z,2.23
2019-03-03T15:53:51.417Z,1.80
2019-03-03T15:56:31.793Z,2.00
2019-03-03T15:59:12.473Z,2.20
2019-03-03T16:01:52.822Z,2.10
2019-03-03T16:04:33.474Z,2.50
2019-03-03T16:07:14.486Z,1.57
2019-03-03T16:09:55.046Z,2.17
2019-03-03T16:12:35.800Z,1.97
2019-03-03T16:15:16.333Z,1.37
2019-03-03T16:17:56.896Z,1.87
2019-03-03T16:20:37.624Z,1.33
2019-03-03T16:23:18.605Z,1.63
2019-03-03T16:25:59.577Z,1.40
2019-03-03T16:28:40.590Z,1.43
2019-03-03T16:31:09.968Z,1.47
2019-03-03T16:33:38.791Z,1.87
2019-03-03T16:36:07.845Z,1.73
2019-03-03T16:38:36.692Z,2.13
2019-03-03T16:41:05.572Z,1.70
2019-03-03T16:43:34.384Z,1.90
2019-03-03T16:46:03.185Z,2.33
2019-03-03T16:48:31.973Z,2.47
2019-03-03T16:51:00.757Z,2.20
2019-03-03T16:53:29.873Z,2.30
2019-03-03T16:55:59.079Z,2.10
2019-03-03T16:58:28.401Z,2.50
2019-03-03T17:00:57.271Z,2.53
2019-03-03T17:03:26.385Z,2.20
2019-03-03T17:05:55.251Z,3.00
2019-03-03T17:08:24.101Z,2.77
2019-03-03T17:11:12.100Z,3.07
2019-03-03T17:14:00.487Z,2.90
2019-03-03T17:16:48.973Z,2.30
2019-03-03T17:19:37.118Z,2.80
2019-03-03T17:22:25.202Z,2.40
2019-03-03T17:25:14.443Z,2.90
2019-03-03T17:27:43.356Z,3.37
2019-03-03T17:30:15.008Z,3.00
2019-03-03T17:32:44.065Z,3.23
2019-03-03T17:35:13.115Z,2.90
2019-03-03T17:37:42.036Z,3.00
2019-03-03T17:40:13.271Z,3.47
2019-03-03T17:42:42.290Z,2.93
2019-03-03T17:45:13.154Z,3.43
2019-03-03T17:47:42.021Z,3.23
2019-03-03T17:50:12.135Z,3.80
2019-03-03T17:52:41.142Z,3.20
2019-03-03T17:55:29.665Z,3.27
2019-03-03T17:58:17.865Z,3.10
2019-03-03T18:01:17.924Z,2.70
2019-03-03T18:06:50.069Z,2.93
2019-03-03T18:09:38.155Z,3.60
2019-03-03T18:12:26.313Z,3.30
2019-03-03T18:15:14.735Z,2.90
2019-03-03T18:18:02.883Z,3.10
2019-03-03T18:20:51.245Z,3.43
2019-03-03T18:23:41.167Z,3.90
2019-03-03T18:26:29.917Z,3.73
2019-03-03T18:29:18.195Z,4.03
2019-03-03T18:32:06.302Z,3.10
2019-03-03T18:34:54.451Z,2.93
2019-03-03T18:37:23.466Z,3.53
2019-03-03T18:40:11.823Z,3.40
2019-03-03T18:42:59.925Z,3.60
2019-03-03T18:45:47.967Z,2.83
2019-03-03T18:48:36.355Z,3.30
2019-03-03T18:51:24.477Z,2.80
2019-03-03T18:54:13.082Z,2.90
2019-03-03T18:57:01.503Z,2.87
2019-03-03T19:00:04.069Z,3.07
2019-03-03T19:02:39.971Z,2.73
2019-03-03T19:08:21.916Z,2.67
2019-03-03T19:11:09.988Z,3.60
2019-03-03T19:13:58.420Z,3.63
2019-03-03T19:16:46.993Z,2.70
2019-03-03T19:19:35.125Z,3.47
2019-03-03T19:22:23.179Z,3.43
2019-03-03T19:25:11.876Z,3.70
2019-03-03T19:27:59.961Z,3.63
2019-03-03T19:30:48.022Z,5.10
2019-03-03T19:33:38.321Z,3.90
2019-03-03T19:36:19.585Z,4.33
2019-03-03T19:39:00.766Z,4.50
2019-03-03T19:41:41.525Z,4.90
2019-03-03T19:44:22.309Z,4.33
2019-03-03T19:47:03.159Z,4.60
2019-03-03T19:49:44.605Z,4.80
2019-03-03T19:52:25.720Z,4.20
2019-03-03T19:55:06.365Z,4.00
2019-03-03T19:57:46.769Z,4.53
2019-03-03T20:00:35.129Z,4.10
2019-03-03T20:03:10.056Z,4.63
2019-03-03T20:05:51.630Z,4.33
2019-03-03T20:08:32.792Z,4.87
2019-03-03T20:11:13.909Z,4.00
2019-03-03T20:13:55.202Z,5.63
2019-03-03T20:16:36.095Z,6.37
2019-03-03T20:19:17.086Z,4.20
2019-03-03T20:21:58.353Z,4.13
2019-03-03T20:24:39.476Z,5.03
2019-03-03T20:27:19.996Z,4.63
2019-03-03T20:30:01.246Z,4.97
2019-03-03T20:32:41.841Z,5.87
2019-03-03T20:35:22.822Z,5.60
2019-03-03T20:38:04.035Z,5.13
2019-03-03T20:40:44.344Z,5.60
2019-03-03T20:43:25.237Z,4.40
2019-03-03T20:46:06.024Z,4.70
2019-03-03T20:48:46.925Z,4.70
2019-03-03T20:51:27.236Z,5.70
2019-03-03T20:54:07.861Z,5.60
2019-03-03T20:56:49.520Z,5.13
2019-03-03T20:59:30.284Z,5.77
2019-03-03T21:02:10.583Z,5.20
2019-03-03T21:04:51.178Z,5.00
2019-03-03T21:07:31.662Z,4.97
2019-03-03T21:10:12.825Z,6.10
2019-03-03T21:12:53.297Z,4.87
2019-03-03T21:15:33.733Z,5.63
2019-03-03T21:18:15.201Z,5.70
2019-03-03T21:20:55.993Z,5.77
2019-03-03T21:23:37.209Z,5.80
2019-03-03T21:26:18.385Z,4.40
2019-03-03T21:28:59.873Z,5.40
2019-03-03T21:31:38.958Z,4.90
2019-03-03T21:34:26.979Z,5.70
2019-03-03T21:37:07.581Z,5.67
2019-03-03T21:39:48.331Z,6.00
2019-03-03T21:42:28.820Z,5.10
2019-03-03T21:45:09.443Z,5.40
2019-03-03T21:47:49.958Z,5.70
2019-03-03T21:50:31.273Z,5.70
2019-03-03T21:53:11.977Z,5.30
2019-03-03T21:55:52.622Z,5.90
2019-03-03T21:58:33.290Z,5.90
2019-03-03T22:01:13.875Z,5.60
2019-03-03T22:03:55.300Z,5.80
2019-03-03T22:06:36.561Z,5.70
2019-03-03T22:09:17.443Z,5.80
2019-03-03T22:11:57.913Z,6.10
2019-03-03T22:14:38.249Z,5.60
2019-03-03T22:17:18.765Z,5.10
2019-03-03T22:19:59.498Z,5.03
2019-03-03T22:22:40.037Z,5.33
2019-03-03T22:25:21.162Z,5.73
2019-03-03T22:28:02.043Z,4.70
2019-03-03T22:30:43.269Z,6.20
2019-03-03T22:33:23.687Z,5.20
2019-03-03T22:36:04.691Z,4.70
2019-03-03T22:38:45.370Z,5.67
2019-03-03T22:41:26.328Z,5.93
2019-03-03T22:44:06.942Z,5.20
2019-03-03T22:46:47.724Z,6.00
2019-03-03T22:49:28.124Z,5.70
2019-03-03T22:52:08.705Z,5.30
2019-03-03T22:54:49.485Z,4.67
2019-03-03T22:57:30.355Z,4.90
2019-03-03T23:00:10.844Z,4.90
2019-03-03T23:02:51.828Z,5.20
2019-03-03T23:05:32.552Z,4.87
2019-03-03T23:08:13.224Z,4.90
2019-03-03T23:10:53.824Z,4.63
2019-03-03T23:13:34.321Z,4.20
2019-03-03T23:16:14.836Z,7.37
2019-03-03T23:18:55.685Z,5.00
2019-03-03T23:21:37.009Z,4.40
2019-03-03T23:24:18.334Z,5.07
2019-03-03T23:26:58.887Z,5.47
2019-03-03T23:29:39.346Z,4.70
2019-03-03T23:32:20.881Z,4.83
2019-03-03T23:35:01.366Z,5.00
2019-03-03T23:37:42.420Z,4.07
2019-03-03T23:40:23.130Z,4.37
2019-03-03T23:43:04.474Z,4.30
2019-03-03T23:45:45.318Z,3.87
2019-03-03T23:48:25.833Z,4.30
2019-03-03T23:51:06.658Z,3.77
2019-03-03T23:53:47.274Z,3.20
2019-03-03T23:56:27.889Z,3.67
2019-03-03T23:59:08.568Z,3.27
